KNJK

El Centro Naf Airport

El Centro, California, USA
METAR KNJK 162156Z COR 30003KT 6SM BR SCT008 SCT250 15/12 A3018 RMK AO2 SLP236 T01500117 $
Observed Flight Rules
Jan-16 @ 21:56 UTC (45 minutes ago) Visual Flight Rules
Wind Visibility Clouds Conditions
300° at 3 knots 6 miles
  • Scattered at 800' AGL
  • Scattered at 25,000' AGL
  • Mist
Temperatures Readings
Current 15°C / 59°F
Dewpoint 12°C / 54°F
Humidity 82%
Altimeter 30.18" Hg
Pressure 1023.6 hPa
Elevation -13
METAR KNJK 162156Z COR 30003KT 6SM BR SCT008 SCT250 15/12 A3018 RMK AO2 SLP236 T01500117 $
Observed Flight Rules
Jan-16 @ 21:56 UTC
(45 minutes ago)
VFR
Wind Visibility
300° at 3 knots 6 miles
Clouds
  • Scattered at 800' AGL
  • Scattered at 25,000' AGL
Conditions
  • Mist
Temperature Dewpoint
15°C / 59°F 12°C / 54°F
Humidity Altimeter Pressure
82% 30.18" Hg 1023.6 hPa